createdAt,value
2022-11-12T00:00:53.771Z,95797.69
2022-11-12T00:03:20.572Z,95797.94
2022-11-12T00:05:47.197Z,95799.19
2022-11-12T00:08:14.064Z,95812.03
2022-11-12T00:10:40.733Z,95806.19
2022-11-12T00:13:07.352Z,95806.63
2022-11-12T00:15:34.246Z,95807.28
2022-11-12T00:18:00.984Z,95802.13
2022-11-12T00:20:27.581Z,95798.88
2022-11-12T00:22:54.236Z,95794.31
2022-11-12T00:25:20.939Z,95798.06
2022-11-12T00:27:47.563Z,95793.88
2022-11-12T00:30:14.199Z,95794.97
2022-11-12T00:32:40.876Z,95804.00
2022-11-12T00:35:12.518Z,95804.56
2022-11-12T00:37:40.478Z,95798.88
2022-11-12T00:40:08.046Z,95803.19
2022-11-12T00:42:34.685Z,95808.91
2022-11-12T00:45:01.362Z,95808.75
2022-11-12T00:47:28.067Z,95806.44
2022-11-12T00:49:54.722Z,95796.44
2022-11-12T00:52:21.362Z,95796.19
2022-11-12T00:54:48.223Z,95796.19
2022-11-12T00:57:14.930Z,95794.03
2022-11-12T00:59:41.677Z,95783.59
2022-11-12T01:02:08.294Z,95795.13
2022-11-12T01:04:35.035Z,95786.72
2022-11-12T01:07:01.790Z,95784.13
2022-11-12T01:09:28.561Z,95789.84
2022-11-12T01:11:55.232Z,95781.72
2022-11-12T01:14:21.964Z,95783.91
2022-11-12T01:16:48.587Z,95788.09
2022-11-12T01:19:15.295Z,95778.72
2022-11-12T01:21:43.786Z,95784.28
2022-11-12T01:24:11.405Z,95782.38
2022-11-12T01:26:38.265Z,95779.41
2022-11-12T01:29:05.272Z,95776.97
2022-11-12T01:31:37.414Z,95756.38
2022-11-12T01:34:07.363Z,95768.28
2022-11-12T01:36:39.712Z,95775.16
2022-11-12T01:39:08.065Z,95767.72
2022-11-12T01:41:37.221Z,95771.59
2022-11-12T01:44:10.473Z,95773.63
2022-11-12T01:47:14.422Z,95764.03
2022-11-12T01:49:54.077Z,95758.47
2022-11-12T01:52:27.638Z,95764.66
2022-11-12T01:54:56.025Z,95766.72
2022-11-12T01:57:34.553Z,95763.47
2022-11-12T02:00:06.226Z,95760.59
2022-11-12T02:02:33.368Z,95765.97
2022-11-12T02:05:00.955Z,95760.03
2022-11-12T02:07:28.649Z,95763.97
2022-11-12T02:09:55.365Z,95765.44
2022-11-12T02:12:40.598Z,95767.31
2022-11-12T02:15:07.748Z,95761.38
2022-11-12T02:17:34.503Z,95760.38
2022-11-12T02:20:01.782Z,95767.81
2022-11-12T02:22:28.549Z,95764.56
2022-11-12T02:24:55.277Z,95763.47
2022-11-12T02:27:22.872Z,95747.66
2022-11-12T02:29:49.584Z,95753.50
2022-11-12T02:32:16.291Z,95755.25
2022-11-12T02:34:43.012Z,95748.00
2022-11-12T02:37:09.714Z,95753.50
2022-11-12T02:39:36.575Z,95748.25
2022-11-12T02:42:03.861Z,95744.31
2022-11-12T02:44:31.384Z,95750.31
2022-11-12T02:46:58.171Z,95744.66
2022-11-12T02:49:24.882Z,95745.75
2022-11-12T02:51:51.534Z,95746.00
2022-11-12T02:54:18.201Z,95741.50
2022-11-12T02:56:44.931Z,95749.19
2022-11-12T02:59:11.551Z,95753.44
2022-11-12T03:01:38.193Z,95749.94
2022-11-12T03:04:04.887Z,95735.50
2022-11-12T03:06:31.590Z,95737.25
2022-11-12T03:08:58.315Z,95739.88
2022-11-12T03:11:24.977Z,95731.63
2022-11-12T03:13:51.587Z,95735.81
2022-11-12T03:16:18.256Z,95736.06
2022-11-12T03:18:44.933Z,95726.88
2022-11-12T03:21:11.674Z,95732.25
2022-11-12T03:23:38.378Z,95729.56
2022-11-12T03:26:05.235Z,95725.25
2022-11-12T03:28:32.452Z,95728.19
2022-11-12T03:30:59.979Z,95723.47
2022-11-12T03:33:26.746Z,95719.28
2022-11-12T03:35:53.371Z,95713.38
2022-11-12T03:38:20.132Z,95709.03
2022-11-12T03:40:46.834Z,95722.00
2022-11-12T03:43:13.537Z,95729.00
2022-11-12T03:45:40.374Z,95725.00
2022-11-12T03:48:07.206Z,95713.59
2022-11-12T03:50:33.942Z,95721.84
2022-11-12T03:53:00.585Z,95726.66
2022-11-12T03:55:28.974Z,95716.06
2022-11-12T03:57:56.694Z,95703.34
2022-11-12T04:00:24.843Z,95712.28
2022-11-12T04:02:51.594Z,95719.72
2022-11-12T04:05:36.859Z,95729.59
2022-11-12T04:08:37.652Z,95718.25
2022-11-12T04:11:15.514Z,95730.13
2022-11-12T04:13:45.650Z,95729.88
2022-11-12T04:16:32.534Z,95729.88
2022-11-12T04:19:19.563Z,95740.31
2022-11-12T04:22:07.704Z,95744.13
2022-11-12T04:24:57.405Z,95746.81
2022-11-12T04:27:26.582Z,95734.25
2022-11-12T04:30:12.125Z,95737.38
2022-11-12T04:32:41.075Z,95732.56
2022-11-12T04:35:09.665Z,95735.59
2022-11-12T04:37:46.352Z,95735.19
2022-11-12T04:40:57.675Z,95731.81
2022-11-12T04:43:42.816Z,95726.88
2022-11-12T04:46:09.863Z,95716.88
2022-11-12T04:48:36.584Z,95708.41
2022-11-12T04:51:25.005Z,95716.09
2022-11-12T04:53:51.764Z,95709.75
2022-11-12T04:56:18.434Z,95692.84
2022-11-12T04:58:45.244Z,95694.72
2022-11-12T05:01:12.002Z,95702.72
2022-11-12T05:03:38.784Z,95714.47
2022-11-12T05:06:24.865Z,95714.88
2022-11-12T05:08:51.546Z,95709.75
2022-11-12T05:11:18.274Z,95711.78
2022-11-12T05:13:45.004Z,95719.19
2022-11-12T05:16:11.724Z,95716.31
2022-11-12T05:18:38.394Z,95711.59
2022-11-12T05:21:25.081Z,95715.34
2022-11-12T05:23:51.655Z,95718.28
2022-11-12T05:26:18.307Z,95713.28
2022-11-12T05:28:44.840Z,95710.28
2022-11-12T05:31:11.445Z,95717.31
2022-11-12T05:33:38.029Z,95713.66
2022-11-12T05:36:04.784Z,95704.59
2022-11-12T05:38:31.337Z,95703.78
2022-11-12T05:40:57.906Z,95708.00
2022-11-12T05:43:24.476Z,95711.38
2022-11-12T05:45:51.032Z,95697.59
2022-11-12T05:48:22.983Z,95672.31
2022-11-12T05:51:11.862Z,95695.44
2022-11-12T05:53:38.577Z,95703.25
2022-11-12T05:56:06.967Z,95707.03
2022-11-12T05:58:34.045Z,95710.97
2022-11-12T06:01:00.648Z,95703.16
2022-11-12T06:03:27.640Z,95718.41
2022-11-12T06:05:54.383Z,95710.03
2022-11-12T06:08:21.008Z,95717.72
2022-11-12T06:10:54.744Z,95719.59
2022-11-12T06:13:23.079Z,95729.72
2022-11-12T06:15:49.904Z,95713.75
2022-11-12T06:18:16.486Z,95731.16
2022-11-12T06:20:43.078Z,95729.53
2022-11-12T06:23:09.758Z,95733.28
2022-11-12T06:25:36.310Z,95730.72
2022-11-12T06:28:03.101Z,95730.44
2022-11-12T06:30:29.694Z,95729.13
2022-11-12T06:32:56.271Z,95728.25
2022-11-12T06:35:22.845Z,95727.47
2022-11-12T06:37:49.887Z,95725.59
2022-11-12T06:40:16.568Z,95734.34
2022-11-12T06:42:43.132Z,95728.13
2022-11-12T06:45:10.261Z,95723.03
2022-11-12T06:47:36.875Z,95721.03
2022-11-12T06:50:03.938Z,95726.38
2022-11-12T06:52:30.649Z,95720.28
2022-11-12T06:54:57.289Z,95707.84
2022-11-12T06:57:24.030Z,95731.50
2022-11-12T06:59:50.632Z,95716.41
2022-11-12T07:02:17.338Z,95718.84
2022-11-12T07:04:43.936Z,95722.19
2022-11-12T07:07:11.162Z,95728.44
2022-11-12T07:09:38.090Z,95726.25
2022-11-12T07:12:05.023Z,95724.28
2022-11-12T07:14:31.599Z,95727.63
2022-11-12T07:16:58.185Z,95723.03
2022-11-12T07:19:24.779Z,95722.41
2022-11-12T07:21:51.712Z,95722.53
2022-11-12T07:24:18.355Z,95724.28
2022-11-12T07:26:47.658Z,95728.69
2022-11-12T07:29:29.994Z,95728.69
2022-11-12T07:32:01.792Z,95725.31
2022-11-12T07:34:28.418Z,95728.81
2022-11-12T07:36:55.112Z,95704.75
2022-11-12T07:39:21.758Z,95719.28
2022-11-12T07:41:48.391Z,95715.78
2022-11-12T07:44:15.092Z,95710.41
2022-11-12T07:46:41.931Z,95717.91
2022-11-12T07:49:08.502Z,95711.88
2022-11-12T07:51:35.500Z,95717.53
2022-11-12T07:54:02.129Z,95705.47
2022-11-12T07:56:29.382Z,95719.34
2022-11-12T07:58:56.103Z,95698.94
2022-11-12T08:01:32.733Z,95707.47
2022-11-12T08:04:00.480Z,95719.53
2022-11-12T08:06:28.422Z,95717.78
2022-11-12T08:08:55.995Z,95712.09
2022-11-12T08:11:23.170Z,95711.41
2022-11-12T08:13:50.949Z,95701.41
2022-11-12T08:16:18.103Z,95706.16
2022-11-12T08:18:45.632Z,95695.16
2022-11-12T08:21:14.342Z,95694.31
2022-11-12T08:23:41.444Z,95687.97
2022-11-12T08:26:10.950Z,95698.09
2022-11-12T08:28:37.961Z,95715.09
2022-11-12T08:31:24.825Z,95711.84
2022-11-12T08:33:51.599Z,95716.72
2022-11-12T08:36:18.452Z,95724.13
2022-11-12T08:38:45.551Z,95718.50
2022-11-12T08:41:14.538Z,95728.50
2022-11-12T08:43:43.246Z,95727.31
2022-11-12T08:46:10.426Z,95731.22
2022-11-12T08:48:37.569Z,95724.63
2022-11-12T08:51:05.253Z,95725.00
2022-11-12T08:53:32.179Z,95710.38
2022-11-12T08:55:59.233Z,95721.38
2022-11-12T08:58:27.023Z,95721.78
2022-11-12T09:00:54.798Z,95720.47
2022-11-12T09:03:23.520Z,95721.03
2022-11-12T09:05:51.143Z,95718.03
2022-11-12T09:08:20.615Z,95717.44
2022-11-12T09:10:47.525Z,95712.78
2022-11-12T09:13:14.504Z,95708.31
2022-11-12T09:15:41.261Z,95722.16
2022-11-12T09:18:12.325Z,95722.41
2022-11-12T09:20:39.106Z,95713.22
2022-11-12T09:23:14.408Z,95714.72
2022-11-12T09:25:41.988Z,95717.81
2022-11-12T09:28:10.686Z,95721.06
2022-11-12T09:30:38.724Z,95719.94
2022-11-12T09:33:05.375Z,95728.22
2022-11-12T09:35:32.060Z,95717.53
2022-11-12T09:37:59.688Z,95718.09
2022-11-12T09:40:52.520Z,95713.91
2022-11-12T09:43:25.660Z,95713.63
2022-11-12T09:46:06.933Z,95708.66
2022-11-12T09:48:44.804Z,95710.50
2022-11-12T09:51:29.053Z,95701.59
2022-11-12T09:53:58.156Z,95693.59
2022-11-12T09:56:26.401Z,95703.75
2022-11-12T09:58:54.000Z,95703.22
2022-11-12T10:01:25.015Z,95704.44
2022-11-12T10:04:05.182Z,95712.16
2022-11-12T10:06:38.945Z,95710.00
2022-11-12T10:09:12.271Z,95707.84
2022-11-12T10:12:04.636Z,95705.38
2022-11-12T10:14:52.303Z,95704.31
2022-11-12T10:17:31.414Z,95692.94
2022-11-12T10:20:35.918Z,95685.03
2022-11-12T10:23:11.311Z,95681.41
2022-11-12T10:25:38.444Z,95672.91
2022-11-12T10:28:27.756Z,95669.91
2022-11-12T10:31:02.024Z,95658.06
2022-11-12T10:33:33.450Z,95666.06
2022-11-12T10:36:23.850Z,95667.38
2022-11-12T10:38:53.742Z,95663.00
2022-11-12T10:41:22.342Z,95660.59
2022-11-12T10:43:57.830Z,95657.50
2022-11-12T10:46:36.343Z,95656.56
2022-11-12T10:49:05.994Z,95650.59
2022-11-12T10:51:37.445Z,95650.69
2022-11-12T10:54:36.513Z,95645.50
2022-11-12T10:57:24.944Z,95634.94
2022-11-12T11:00:15.680Z,95625.75
2022-11-12T11:02:53.563Z,95620.13
2022-11-12T11:05:33.032Z,95634.38
2022-11-12T11:08:00.062Z,95624.38
2022-11-12T11:10:29.731Z,95619.81
2022-11-12T11:13:17.832Z,95617.56
2022-11-12T11:15:57.682Z,95617.00
2022-11-12T11:18:24.900Z,95604.63
2022-11-12T11:21:08.253Z,95600.78
2022-11-12T11:23:54.383Z,95604.69
2022-11-12T11:26:54.492Z,95601.69
2022-11-12T11:29:29.462Z,95592.44
2022-11-12T11:32:07.733Z,95605.44
2022-11-12T11:34:43.472Z,95601.09
2022-11-12T11:37:28.120Z,95589.28
2022-11-12T11:40:25.571Z,95582.44
2022-11-12T11:43:12.642Z,95582.25
2022-11-12T11:45:54.282Z,95575.03
2022-11-12T11:48:24.127Z,95570.50
2022-11-12T11:51:04.894Z,95562.59
2022-11-12T11:53:58.606Z,95575.69
2022-11-12T11:56:37.949Z,95566.84
2022-11-12T11:59:15.552Z,95549.66
2022-11-12T12:02:11.724Z,95557.00
2022-11-12T12:05:10.342Z,95555.16
2022-11-12T12:07:55.333Z,95552.06
2022-11-12T12:11:01.106Z,95550.69
2022-11-12T12:13:30.732Z,95548.78
2022-11-12T12:16:01.633Z,95544.50
2022-11-12T12:18:34.578Z,95534.41
2022-11-12T12:21:13.522Z,95546.88
2022-11-12T12:23:57.958Z,95538.53
2022-11-12T12:26:29.672Z,95523.09
2022-11-12T12:29:19.353Z,95524.03
2022-11-12T12:31:58.752Z,95521.31
2022-11-12T12:34:33.763Z,95504.97
2022-11-12T12:37:33.593Z,95500.75
2022-11-12T12:40:06.381Z,95500.59
2022-11-12T12:42:59.410Z,95492.81
2022-11-12T12:45:36.139Z,95483.31
2022-11-12T12:48:05.440Z,95486.19
2022-11-12T12:50:33.122Z,95484.22
2022-11-12T12:53:00.883Z,95479.66
2022-11-12T12:55:46.132Z,95475.44
2022-11-12T12:58:18.772Z,95476.97
2022-11-12T13:00:51.136Z,95473.28
2022-11-12T13:03:53.139Z,95476.94
2022-11-12T13:06:24.100Z,95468.66
2022-11-12T13:09:17.447Z,95461.59
2022-11-12T13:12:02.412Z,95457.41
2022-11-12T13:14:31.924Z,95461.22
2022-11-12T13:17:00.491Z,95454.16
2022-11-12T13:19:36.815Z,95451.09
2022-11-12T13:22:18.586Z,95462.72
2022-11-12T13:25:01.925Z,95453.75
2022-11-12T13:27:43.632Z,95451.09
2022-11-12T13:30:30.669Z,95446.81
2022-11-12T13:32:58.822Z,95436.44
2022-11-12T13:35:30.598Z,95438.50
2022-11-12T13:38:15.720Z,95441.44
2022-11-12T13:41:05.729Z,95431.28
2022-11-12T13:43:47.580Z,95434.66
2022-11-12T13:46:32.109Z,95435.25
2022-11-12T13:49:09.763Z,95418.13
2022-11-12T13:51:47.400Z,95429.44
2022-11-12T13:54:43.512Z,95427.69
2022-11-12T13:57:20.292Z,95433.44
2022-11-12T13:59:47.804Z,95436.88
2022-11-12T14:02:22.632Z,95435.56
2022-11-12T14:04:50.064Z,95427.19
2022-11-12T14:07:34.782Z,95426.53
2022-11-12T14:10:23.403Z,95411.31
2022-11-12T14:13:17.623Z,95411.38
2022-11-12T14:16:02.844Z,95412.38
2022-11-12T14:18:43.163Z,95410.47
2022-11-12T14:21:16.616Z,95405.19
2022-11-12T14:23:48.162Z,95405.19
2022-11-12T14:26:37.032Z,95400.09
2022-11-12T14:29:03.744Z,95401.56
2022-11-12T14:31:30.433Z,95400.78
2022-11-12T14:33:57.239Z,95402.75
2022-11-12T14:36:24.261Z,95399.88
2022-11-12T14:38:55.602Z,95401.19
2022-11-12T14:41:25.902Z,95399.13
2022-11-12T14:44:11.461Z,95397.34
2022-11-12T14:46:50.582Z,95395.75
2022-11-12T14:49:19.873Z,95400.22
2022-11-12T14:51:51.627Z,95406.03
2022-11-12T14:54:31.463Z,95399.06
2022-11-12T14:56:58.988Z,95396.13
2022-11-12T14:59:25.662Z,95403.69
2022-11-12T15:02:42.254Z,95400.03
2022-11-12T15:05:15.483Z,95391.03
2022-11-12T15:08:01.155Z,95395.19
2022-11-12T15:10:39.903Z,95385.09
2022-11-12T15:13:15.725Z,95388.53
2022-11-12T15:15:55.310Z,95391.34
2022-11-12T15:18:24.634Z,95387.50
2022-11-12T15:21:12.763Z,95388.84
2022-11-12T15:24:18.273Z,95387.38
2022-11-12T15:26:47.763Z,95388.53
2022-11-12T15:29:24.861Z,95392.53
2022-11-12T15:31:54.464Z,95395.91
2022-11-12T15:34:28.350Z,95392.59
2022-11-12T15:36:56.283Z,95387.63
2022-11-12T15:39:23.911Z,95392.28
2022-11-12T15:42:00.870Z,95392.88
2022-11-12T15:44:32.161Z,95386.41
2022-11-12T15:46:59.162Z,95396.19
2022-11-12T15:49:25.816Z,95397.97
2022-11-12T15:51:52.443Z,95397.25
2022-11-12T15:54:19.132Z,95401.22
2022-11-12T15:56:46.142Z,95394.00
2022-11-12T15:59:15.793Z,95409.47
2022-11-12T16:01:43.243Z,95399.72
2022-11-12T16:04:13.354Z,95395.47
2022-11-12T16:06:40.185Z,95393.03
2022-11-12T16:09:06.992Z,95399.75
2022-11-12T16:11:36.635Z,95403.84
2022-11-12T16:14:10.638Z,95405.84
2022-11-12T16:16:39.323Z,95402.47
2022-11-12T16:19:14.640Z,95387.34
2022-11-12T16:21:41.564Z,95395.16
2022-11-12T16:24:08.612Z,95398.78
2022-11-12T16:26:35.973Z,95398.41
2022-11-12T16:29:04.074Z,95401.69
2022-11-12T16:31:30.703Z,95400.16
2022-11-12T16:33:57.275Z,95407.94
2022-11-12T16:36:24.021Z,95404.03
2022-11-12T16:38:50.702Z,95405.66
2022-11-12T16:41:17.438Z,95405.28
2022-11-12T16:43:44.180Z,95406.78
2022-11-12T16:46:19.235Z,95402.09
2022-11-12T16:48:45.903Z,95410.94
2022-11-12T16:51:17.582Z,95401.41
2022-11-12T16:53:44.701Z,95410.84
2022-11-12T16:56:18.207Z,95408.72
2022-11-12T16:58:45.013Z,95413.50
2022-11-12T17:01:31.650Z,95406.63
2022-11-12T17:03:58.912Z,95414.44
2022-11-12T17:06:37.356Z,95413.22
2022-11-12T17:09:06.347Z,95404.38
2022-11-12T17:11:33.856Z,95419.34
2022-11-12T17:14:04.760Z,95416.78
2022-11-12T17:16:31.733Z,95415.03
2022-11-12T17:18:59.502Z,95417.56
2022-11-12T17:21:26.124Z,95417.94
2022-11-12T17:23:54.941Z,95416.47
2022-11-12T17:26:22.311Z,95418.78
2022-11-12T17:28:53.895Z,95415.84
2022-11-12T17:31:24.600Z,95422.81
2022-11-12T17:33:52.821Z,95415.97
2022-11-12T17:36:21.945Z,95412.34
2022-11-12T17:38:48.887Z,95419.09
2022-11-12T17:41:15.644Z,95414.91
2022-11-12T17:43:42.312Z,95415.31
2022-11-12T17:46:09.747Z,95412.34
2022-11-12T17:48:37.753Z,95416.06
2022-11-12T17:51:13.023Z,95414.63
2022-11-12T17:53:40.029Z,95409.38
2022-11-12T17:56:07.743Z,95410.84
2022-11-12T17:58:34.613Z,95415.41
2022-11-12T18:01:15.441Z,95407.56
2022-11-12T18:03:44.072Z,95409.84
2022-11-12T18:06:12.792Z,95397.56
2022-11-12T18:08:40.583Z,95403.41
2022-11-12T18:11:08.909Z,95402.28
2022-11-12T18:13:35.624Z,95407.97
2022-11-12T18:16:02.813Z,95401.06
2022-11-12T18:18:30.121Z,95390.19
2022-11-12T18:20:57.247Z,95405.81
2022-11-12T18:23:24.157Z,95401.22
2022-11-12T18:25:51.424Z,95387.53
2022-11-12T18:28:18.131Z,95396.34
2022-11-12T18:30:44.875Z,95395.28
2022-11-12T18:33:12.281Z,95388.78
2022-11-12T18:35:38.991Z,95390.03
2022-11-12T18:38:05.678Z,95394.66
2022-11-12T18:40:32.351Z,95394.56
2022-11-12T18:42:59.106Z,95391.69
2022-11-12T18:45:25.855Z,95395.09
2022-11-12T18:47:52.633Z,95391.31
2022-11-12T18:50:19.383Z,95394.53
2022-11-12T18:52:46.156Z,95401.94
2022-11-12T18:55:12.845Z,95397.00
2022-11-12T18:57:39.503Z,95390.59
2022-11-12T19:00:06.644Z,95388.47
2022-11-12T19:02:33.324Z,95388.97
2022-11-12T19:05:00.011Z,95395.63
2022-11-12T19:07:26.703Z,95401.84
2022-11-12T19:09:53.362Z,95395.09
2022-11-12T19:12:20.061Z,95403.50
2022-11-12T19:14:46.801Z,95408.34
2022-11-12T19:17:13.551Z,95408.09
2022-11-12T19:19:40.300Z,95409.16
2022-11-12T19:22:07.043Z,95407.25
2022-11-12T19:24:33.783Z,95393.75
2022-11-12T19:27:00.471Z,95389.84
2022-11-12T19:29:27.183Z,95393.47
2022-11-12T19:31:54.151Z,95390.66
2022-11-12T19:34:20.860Z,95399.97
2022-11-12T19:36:48.497Z,95398.66
2022-11-12T19:39:19.842Z,95390.94
2022-11-12T19:41:46.551Z,95391.47
2022-11-12T19:44:13.233Z,95389.84
2022-11-12T19:46:39.913Z,95390.13
2022-11-12T19:49:06.492Z,95389.84
2022-11-12T19:51:33.201Z,95394.88
2022-11-12T19:53:59.855Z,95394.59
2022-11-12T19:56:27.699Z,95390.84
2022-11-12T19:58:55.090Z,95373.03
2022-11-12T20:01:21.969Z,95382.84
2022-11-12T20:03:48.723Z,95380.69
2022-11-12T20:06:17.837Z,95379.75
2022-11-12T20:08:44.702Z,95384.75
2022-11-12T20:11:11.668Z,95383.28
2022-11-12T20:13:38.375Z,95374.53
2022-11-12T20:16:24.741Z,95378.56
2022-11-12T20:18:55.822Z,95382.19
2022-11-12T20:21:23.773Z,95367.19
2022-11-12T20:23:50.464Z,95372.47
2022-11-12T20:26:17.250Z,95363.56
2022-11-12T20:28:44.161Z,95381.88
2022-11-12T20:31:13.442Z,95380.25
2022-11-12T20:33:42.708Z,95383.81
2022-11-12T20:36:12.525Z,95371.91
2022-11-12T20:38:40.625Z,95373.63
2022-11-12T20:41:12.941Z,95377.59
2022-11-12T20:43:39.568Z,95383.69
2022-11-12T20:46:06.362Z,95377.09
2022-11-12T20:48:33.040Z,95377.88
2022-11-12T20:51:24.647Z,95382.75
2022-11-12T20:54:00.099Z,95377.88
2022-11-12T20:56:29.332Z,95382.19
2022-11-12T20:58:56.596Z,95386.00
2022-11-12T21:01:24.800Z,95386.25
2022-11-12T21:03:51.973Z,95383.81
2022-11-12T21:06:21.357Z,95379.00
2022-11-12T21:08:48.166Z,95366.69
2022-11-12T21:11:17.256Z,95363.03
2022-11-12T21:13:44.083Z,95354.78
2022-11-12T21:16:11.804Z,95359.25
2022-11-12T21:18:39.136Z,95357.53
2022-11-12T21:21:10.832Z,95362.50
2022-11-12T21:23:39.124Z,95360.63
2022-11-12T21:26:08.019Z,95367.66
2022-11-12T21:28:38.211Z,95370.06
2022-11-12T21:31:06.549Z,95360.09
2022-11-12T21:33:33.455Z,95364.13
2022-11-12T21:36:00.194Z,95365.63
2022-11-12T21:38:27.969Z,95366.19
2022-11-12T21:41:05.066Z,95355.94
2022-11-12T21:43:32.360Z,95351.59
2022-11-12T21:45:59.422Z,95348.59
2022-11-12T21:48:26.438Z,95344.03
2022-11-12T21:50:53.293Z,95353.22
2022-11-12T21:53:19.991Z,95349.97
2022-11-12T21:55:46.691Z,95342.81
2022-11-12T21:58:13.344Z,95342.81
2022-11-12T22:00:42.074Z,95338.81
2022-11-12T22:03:09.335Z,95344.47
2022-11-12T22:05:37.208Z,95337.84
2022-11-12T22:08:04.083Z,95338.13
2022-11-12T22:10:30.689Z,95336.38
2022-11-12T22:13:25.500Z,95332.34
2022-11-12T22:15:44.062Z,95312.91
2022-11-12T22:18:10.795Z,95334.63
2022-11-12T22:20:37.402Z,95334.50
2022-11-12T22:23:04.007Z,95322.88
2022-11-12T22:25:30.629Z,95329.88
2022-11-12T22:27:57.358Z,95327.59
2022-11-12T22:30:23.931Z,95327.56
2022-11-12T22:32:50.554Z,95331.09
2022-11-12T22:35:17.079Z,95322.59
2022-11-12T22:37:43.798Z,95327.44
2022-11-12T22:40:13.518Z,95331.09
2022-11-12T22:42:40.423Z,95330.94
2022-11-12T22:45:07.881Z,95330.53
2022-11-12T22:47:34.504Z,95322.59
2022-11-12T22:50:01.233Z,95325.28
2022-11-12T22:52:27.840Z,95318.63
2022-11-12T22:54:54.464Z,95309.09
2022-11-12T22:57:21.088Z,95307.63
2022-11-12T22:59:47.850Z,95314.66
2022-11-12T23:02:14.489Z,95324.38
2022-11-12T23:04:41.573Z,95321.69
2022-11-12T23:07:08.479Z,95308.03
2022-11-12T23:09:35.216Z,95324.47
2022-11-12T23:12:01.842Z,95324.75
2022-11-12T23:14:28.491Z,95321.00
2022-11-12T23:16:58.910Z,95320.19
2022-11-12T23:19:25.558Z,95314.69
2022-11-12T23:21:52.316Z,95315.63
2022-11-12T23:24:19.259Z,95306.84
2022-11-12T23:26:45.843Z,95304.53
2022-11-12T23:29:12.847Z,95305.31
2022-11-12T23:31:40.269Z,95298.34
2022-11-12T23:34:06.851Z,95297.41
2022-11-12T23:36:33.462Z,95291.88
2022-11-12T23:39:01.086Z,95287.97
2022-11-12T23:41:28.067Z,95278.38
2022-11-12T23:43:56.204Z,95273.00
2022-11-12T23:46:23.188Z,95280.28
2022-11-12T23:48:50.123Z,95276.72
2022-11-12T23:51:21.289Z,95274.56
2022-11-12T23:53:49.044Z,95263.28
2022-11-12T23:56:17.433Z,95265.97
2022-11-12T23:58:44.072Z,95259.78
